Time;durP1;ratioP1;P1;durP2;ratioP2;P2;SDS_P1;SDS_P2;PMS_P1;PMS_P2;Temp;Humidity;BMP_temperature;BMP_pressure;BME280_temperature;BME280_humidity;BME280_pressure;Samples;Min_cycle;Max_cycle;Signal;HPM_P1;HPM_P2
2022/05/25 00:01:15;;;;;;;1.90;0.30;;;;;;;10.77;74.28;100483.09;5038370;28;20037;-75
2022/05/25 00:03:41;;;;;;;1.58;0.30;;;;;;;10.76;74.25;100491.75;5017262;28;20041;-75
2022/05/25 00:06:07;;;;;;;3.28;0.50;;;;;;;10.73;74.25;100488.44;5033417;28;20126;-76
2022/05/25 00:08:33;;;;;;;4.15;0.52;;;;;;;10.71;74.42;100487.91;5038315;28;20036;-75
2022/05/25 00:10:59;;;;;;;3.53;0.30;;;;;;;10.70;74.61;100493.75;5038178;28;20041;-75
2022/05/25 00:13:24;;;;;;;1.95;0.43;;;;;;;10.70;74.61;100489.03;5036996;28;20505;-75
2022/05/25 00:15:50;;;;;;;3.10;0.38;;;;;;;10.67;74.68;100491.53;5023429;28;20034;-75
2022/05/25 00:18:15;;;;;;;3.38;0.68;;;;;;;10.63;75.02;100490.50;5037221;28;20025;-75
2022/05/25 00:20:41;;;;;;;2.90;0.47;;;;;;;10.58;75.25;100487.78;5038349;28;20040;-75
2022/05/25 00:23:06;;;;;;;2.67;0.40;;;;;;;10.57;74.79;100498.06;5038106;28;20383;-75
2022/05/25 00:25:35;;;;;;;2.25;0.47;;;;;;;10.56;74.78;100498.34;5038325;28;20033;-75
2022/05/25 00:28:01;;;;;;;3.17;0.47;;;;;;;10.50;75.35;100503.13;5017395;28;20077;-75
2022/05/25 00:30:27;;;;;;;0.63;0.30;;;;;;;10.51;75.45;100500.06;5014577;28;20061;-75
2022/05/25 00:32:56;;;;;;;2.75;0.77;;;;;;;10.47;75.60;100496.22;5033560;28;20036;-75
2022/05/25 00:35:22;;;;;;;2.75;0.30;;;;;;;10.43;75.88;100500.69;5031457;28;20025;-75
2022/05/25 00:37:48;;;;;;;2.47;0.40;;;;;;;10.40;75.82;100501.28;5038194;28;20513;-75
2022/05/25 00:40:35;;;;;;;1.85;0.40;;;;;;;10.36;76.22;100493.81;5037631;28;20096;-75
2022/05/25 00:43:01;;;;;;;2.17;0.32;;;;;;;10.34;76.09;100502.47;5029424;28;20100;-75
2022/05/25 00:45:26;;;;;;;2.78;0.63;;;;;;;10.31;76.25;100494.72;5049558;28;20030;-75
2022/05/25 00:47:52;;;;;;;3.20;0.73;;;;;;;10.25;76.31;100496.69;5019877;28;20029;-75
2022/05/25 00:50:20;;;;;;;2.20;0.40;;;;;;;10.22;76.42;100499.19;4983902;28;20033;-75
2022/05/25 00:52:47;;;;;;;0.85;0.30;;;;;;;10.19;76.29;100492.28;4992685;28;20041;-75
2022/05/25 00:55:15;;;;;;;2.58;0.40;;;;;;;10.13;76.68;100493.47;5003350;28;20030;-75
2022/05/25 00:57:46;;;;;;;0.88;0.35;;;;;;;10.12;76.37;100499.31;5036431;28;20025;-75
2022/05/25 01:00:14;;;;;;;4.05;0.40;;;;;;;10.06;76.61;100502.13;5036907;28;20033;-75
2022/05/25 01:02:51;;;;;;;2.00;0.35;;;;;;;10.02;76.19;100498.25;5035994;28;20045;-75
2022/05/25 01:05:25;;;;;;;1.25;0.30;;;;;;;9.99;76.41;100503.56;5022318;28;20048;-75
2022/05/25 01:08:09;;;;;;;1.10;0.40;;;;;;;9.95;76.45;100503.34;5032159;28;20029;-75
2022/05/25 01:10:43;;;;;;;4.38;0.35;;;;;;;9.91;76.62;100507.78;5035860;28;20030;-75
2022/05/25 01:13:11;;;;;;;1.27;0.30;;;;;;;9.89;76.67;100509.19;5036937;28;20392;-75
2022/05/25 01:16:14;;;;;;;1.48;0.30;;;;;;;9.88;76.80;100515.88;5019013;28;20044;-75
2022/05/25 01:18:58;;;;;;;2.00;0.40;;;;;;;9.83;76.78;100517.59;5032875;28;20029;-75
2022/05/25 01:21:40;;;;;;;3.05;0.40;;;;;;;9.82;76.85;100520.63;5036383;28;20048;-75
2022/05/25 01:24:22;;;;;;;2.95;0.50;;;;;;;9.75;76.67;100520.97;4992286;28;20061;-75
2022/05/25 01:26:58;;;;;;;1.25;0.30;;;;;;;9.78;76.63;100541.75;4987007;28;20473;-75
2022/05/25 01:29:33;;;;;;;1.55;0.30;;;;;;;9.73;76.78;100539.84;5018457;28;20040;-75
2022/05/25 01:32:04;;;;;;;1.50;0.30;;;;;;;9.72;76.81;100548.44;5036618;28;20036;-75
2022/05/25 01:34:39;;;;;;;3.00;0.35;;;;;;;9.69;76.69;100543.47;5036645;28;20034;-75
2022/05/25 01:37:30;;;;;;;1.65;0.20;;;;;;;9.68;76.86;100547.38;5036646;28;20658;-75
2022/05/25 01:40:02;;;;;;;1.35;0.40;;;;;;;9.65;76.90;100539.63;5035774;28;20040;-75
2022/05/25 01:42:31;;;;;;;1.83;0.70;;;;;;;9.63;76.91;100542.66;5019174;28;20458;-75
2022/05/25 01:44:59;;;;;;;2.83;0.40;;;;;;;9.64;76.74;100547.13;5035194;28;20091;-77
2022/05/25 01:47:26;;;;;;;4.43;0.45;;;;;;;9.61;76.83;100550.44;5019276;28;20035;-75
2022/05/25 01:50:00;;;;;;;1.23;0.40;;;;;;;9.60;77.12;100546.84;5018719;28;20065;-75
2022/05/25 01:52:29;;;;;;;2.15;0.40;;;;;;;9.60;77.08;100549.63;5035459;28;20453;-76
2022/05/25 01:55:02;;;;;;;1.98;0.30;;;;;;;9.59;76.95;100555.47;5035118;28;20032;-75
2022/05/25 01:57:29;;;;;;;2.53;0.40;;;;;;;9.57;76.89;100558.50;5035211;28;20037;-75
2022/05/25 01:59:55;;;;;;;1.35;0.30;;;;;;;9.57;76.93;100564.06;5018501;28;20037;-75
2022/05/25 02:05:13;;;;;;;0.90;0.30;;;;;;;9.52;77.26;100566.84;5034667;28;20039;-75
2022/05/25 02:07:51;;;;;;;1.17;0.40;;;;;;;9.50;77.20;100563.56;5034932;28;20037;-76
2022/05/25 02:10:44;;;;;;;1.70;0.50;;;;;;;9.49;77.53;100567.41;5035919;28;20034;-76
2022/05/25 02:13:36;;;;;;;1.45;0.35;;;;;;;9.50;77.67;100568.25;5029561;28;20132;-76
2022/05/25 02:16:49;;;;;;;0.93;0.40;;;;;;;9.53;77.28;100573.25;5004347;28;20038;-75
2022/05/25 02:19:22;;;;;;;1.27;0.30;;;;;;;9.45;77.45;100571.91;5016480;28;20487;-75
2022/05/25 02:22:20;;;;;;;1.83;0.45;;;;;;;9.48;77.13;100576.03;5018529;28;20118;-76
2022/05/25 02:24:59;;;;;;;2.58;0.40;;;;;;;9.48;77.15;100578.81;5050303;28;20042;-75
2022/05/25 02:27:29;;;;;;;1.98;0.40;;;;;;;9.42;77.33;100583.56;5034956;28;20080;-75
2022/05/25 02:30:01;;;;;;;2.00;0.30;;;;;;;9.40;77.35;100580.22;5015695;28;20033;-75
2022/05/25 02:32:26;;;;;;;2.75;0.40;;;;;;;9.38;77.21;100582.44;5034857;28;20464;-75
2022/05/25 02:34:52;;;;;;;2.28;0.60;;;;;;;9.38;77.53;100588.00;5036012;28;20057;-75
2022/05/25 02:37:19;;;;;;;1.67;0.40;;;;;;;9.33;77.70;100585.25;5034890;28;20033;-75
2022/05/25 02:39:46;;;;;;;2.70;0.50;;;;;;;9.35;77.18;100591.34;5023323;28;20037;-75
2022/05/25 02:42:13;;;;;;;1.63;0.35;;;;;;;9.29;77.80;100592.47;5038159;28;20100;-76
2022/05/25 02:44:39;;;;;;;1.23;0.45;;;;;;;9.31;77.68;100593.03;5038567;28;20083;-75
2022/05/25 02:47:05;;;;;;;2.95;0.30;;;;;;;9.27;77.78;100597.47;5039901;28;20060;-76
2022/05/25 02:49:30;;;;;;;3.70;0.60;;;;;;;9.26;77.59;100593.03;5033498;28;20025;-75
2022/05/25 02:51:56;;;;;;;4.70;0.43;;;;;;;9.22;77.47;100589.16;5041007;28;20025;-76
2022/05/25 02:54:22;;;;;;;2.08;0.50;;;;;;;9.20;77.33;100592.25;5038539;28;20026;-75
2022/05/25 02:56:49;;;;;;;2.85;0.38;;;;;;;9.17;77.59;100596.41;5039694;28;20041;-75
2022/05/25 02:59:14;;;;;;;1.75;0.32;;;;;;;9.16;77.53;100596.66;5039814;28;20017;-75
2022/05/25 03:01:40;;;;;;;1.38;0.45;;;;;;;9.14;77.49;100593.38;5039620;28;20037;-76
2022/05/25 03:04:05;;;;;;;2.55;0.38;;;;;;;9.14;77.56;100604.47;5038365;28;20040;-75
2022/05/25 03:06:31;;;;;;;1.52;0.32;;;;;;;9.09;78.18;100602.53;5037784;28;20026;-76
2022/05/25 03:08:56;;;;;;;1.23;0.45;;;;;;;9.08;78.11;100588.94;5038413;28;20025;-76
2022/05/25 03:11:22;;;;;;;2.30;0.50;;;;;;;9.06;78.02;100597.53;5039354;28;20029;-76
2022/05/25 03:13:48;;;;;;;1.40;0.40;;;;;;;9.02;78.26;100595.63;5039428;28;20049;-76
2022/05/25 03:16:15;;;;;;;1.58;0.40;;;;;;;9.01;78.28;100600.31;5025750;28;20029;-76
2022/05/25 03:18:42;;;;;;;1.38;0.38;;;;;;;9.00;78.28;100606.13;5001989;28;20026;-75
2022/05/25 03:21:08;;;;;;;1.67;0.50;;;;;;;9.02;78.04;100606.69;5018305;28;20034;-75
2022/05/25 03:23:34;;;;;;;2.20;0.40;;;;;;;8.96;78.63;100608.66;5024958;28;20038;-76
2022/05/25 03:25:59;;;;;;;1.50;0.40;;;;;;;8.92;78.55;100610.34;5036426;28;20026;-76
2022/05/25 03:28:25;;;;;;;2.35;0.63;;;;;;;8.91;78.93;100614.19;5037593;28;20029;-76
2022/05/25 03:30:51;;;;;;;1.98;0.50;;;;;;;8.87;78.92;100616.69;5049686;28;20026;-75
2022/05/25 03:33:16;;;;;;;3.08;0.50;;;;;;;8.89;78.73;100624.75;5029208;28;20037;-76
2022/05/25 03:35:42;;;;;;;1.65;0.60;;;;;;;8.84;78.96;100621.97;5005176;28;20034;-76
2022/05/25 03:38:08;;;;;;;0.80;0.40;;;;;;;8.82;78.93;100626.97;5018205;28;20510;-76
2022/05/25 03:40:33;;;;;;;2.15;0.40;;;;;;;8.78;78.67;100623.94;5042447;28;20022;-76
2022/05/25 03:42:59;;;;;;;1.27;0.40;;;;;;;8.70;78.74;100617.00;5028688;28;20034;-76
2022/05/25 03:45:24;;;;;;;1.20;0.40;;;;;;;8.71;79.01;100613.13;5037332;28;20033;-76
2022/05/25 03:47:50;;;;;;;2.78;0.70;;;;;;;8.69;79.10;100607.06;5020024;28;20038;-75
2022/05/25 03:50:18;;;;;;;2.00;0.40;;;;;;;8.66;79.28;100604.84;5037169;28;20040;-75
2022/05/25 03:52:44;;;;;;;1.33;0.40;;;;;;;8.65;79.34;100605.94;5037035;28;20452;-75
2022/05/25 03:55:09;;;;;;;2.17;0.57;;;;;;;8.62;79.21;100606.50;5038587;28;20087;-75
2022/05/25 03:57:35;;;;;;;2.10;0.60;;;;;;;8.61;79.56;100604.84;5038765;28;20033;-75
2022/05/25 04:00:00;;;;;;;0.40;0.40;;;;;;;8.58;79.53;100597.09;5065539;28;20022;-75
2022/05/25 04:02:26;;;;;;;3.42;0.50;;;;;;;8.57;79.38;100597.38;5028913;28;20514;-76
2022/05/25 04:05:07;;;;;;;1.10;0.50;;;;;;;8.57;79.63;100595.44;5038064;28;20037;-75
2022/05/25 04:07:36;;;;;;;1.13;0.50;;;;;;;8.55;79.44;100603.16;5038397;28;20040;-76
2022/05/25 04:10:03;;;;;;;3.97;0.45;;;;;;;8.55;79.48;100617.00;5037258;28;20026;-76
2022/05/25 04:12:29;;;;;;;3.60;0.60;;;;;;;8.47;79.63;100614.81;5036974;28;20111;-75
2022/05/25 04:14:54;;;;;;;1.95;0.60;;;;;;;8.53;79.80;100626.72;5032338;28;20034;-75
2022/05/25 04:17:20;;;;;;;4.57;0.50;;;;;;;8.47;79.62;100626.72;5063337;28;20022;-76
2022/05/25 04:19:45;;;;;;;0.90;0.40;;;;;;;8.44;79.79;100623.66;5020506;28;20501;-76
2022/05/25 04:22:11;;;;;;;2.17;0.60;;;;;;;8.43;79.95;100617.31;5020646;28;20040;-76
2022/05/25 04:24:36;;;;;;;3.03;0.40;;;;;;;8.42;80.09;100621.19;5020674;28;20032;-76
2022/05/25 04:27:02;;;;;;;1.38;0.40;;;;;;;8.42;80.01;100628.66;4984545;28;20406;-76
2022/05/25 04:29:28;;;;;;;2.20;0.60;;;;;;;8.40;80.49;100628.09;5034610;28;20478;-76
2022/05/25 04:31:53;;;;;;;2.00;0.50;;;;;;;8.44;80.20;100615.34;5003877;28;20037;-75
2022/05/25 04:34:18;;;;;;;1.40;0.52;;;;;;;8.39;80.64;100616.22;5037812;28;20033;-76
2022/05/25 04:36:44;;;;;;;2.15;0.57;;;;;;;8.42;81.05;100628.66;5036936;28;20022;-75
2022/05/25 04:39:10;;;;;;;1.50;0.50;;;;;;;8.44;81.20;100634.72;5020197;28;20091;-76
2022/05/25 04:41:36;;;;;;;6.15;0.70;;;;;;;8.47;82.17;100634.22;5036497;28;20030;-76
2022/05/25 04:44:03;;;;;;;2.92;1.02;;;;;;;8.53;84.12;100635.84;5036745;28;20488;-76
2022/05/25 04:46:28;;;;;;;7.63;0.85;;;;;;;8.58;84.17;100641.41;5048807;28;20028;-75
2022/05/25 04:48:54;;;;;;;1.58;0.60;;;;;;;8.64;85.20;100643.06;5038128;28;20033;-75
2022/05/25 04:51:19;;;;;;;2.10;0.80;;;;;;;8.73;84.72;100644.13;5037695;28;20040;-75
2022/05/25 04:53:45;;;;;;;2.10;0.70;;;;;;;8.85;85.55;100645.78;4981860;28;20036;-76
2022/05/25 04:58:54;;;;;;;2.25;0.50;;;;;;;9.09;87.37;100641.31;5025180;28;20060;-76
2022/05/25 05:01:19;;;;;;;2.05;0.50;;;;;;;9.22;86.45;100647.34;5036018;28;20429;-75
2022/05/25 05:03:45;;;;;;;3.58;0.70;;;;;;;9.37;86.15;100647.31;5015586;28;20037;-76
2022/05/25 05:06:11;;;;;;;2.92;0.70;;;;;;;9.50;86.33;100640.31;5017524;28;20026;-76
2022/05/25 05:08:37;;;;;;;2.97;0.50;;;;;;;9.60;85.69;100641.13;5036095;28;20025;-76
2022/05/25 05:11:11;;;;;;;3.15;0.52;;;;;;;9.71;87.15;100653.00;5035869;28;20483;-76
2022/05/25 05:13:37;;;;;;;3.10;0.70;;;;;;;9.80;86.40;100659.59;5037083;28;20041;-76
2022/05/25 05:16:05;;;;;;;2.85;0.85;;;;;;;9.88;86.00;100660.94;5022658;28;20026;-76
2022/05/25 05:18:30;;;;;;;3.33;0.40;;;;;;;9.94;85.67;100668.13;5037117;28;20033;-75
2022/05/25 05:20:56;;;;;;;2.25;0.77;;;;;;;9.99;85.10;100662.53;5035810;28;20063;-76
2022/05/25 05:23:21;;;;;;;5.05;0.80;;;;;;;10.07;84.53;100666.66;5046088;28;20033;-76
2022/05/25 05:25:47;;;;;;;2.10;0.50;;;;;;;10.13;84.37;100670.25;5035128;28;20386;-75
2022/05/25 05:28:18;;;;;;;2.00;0.60;;;;;;;10.17;84.23;100674.09;5035821;28;20033;-76
2022/05/25 05:30:53;;;;;;;2.88;0.50;;;;;;;10.23;85.28;100675.75;5034341;28;20033;-75
2022/05/25 05:33:20;;;;;;;4.70;0.43;;;;;;;10.28;84.32;100675.75;5035740;28;20048;-76
2022/05/25 05:35:46;;;;;;;2.90;0.57;;;;;;;10.32;83.87;100676.81;5040244;28;20025;-76
2022/05/25 05:38:12;;;;;;;3.53;0.70;;;;;;;10.37;84.28;100687.06;5045281;28;20479;-76
2022/05/25 05:40:37;;;;;;;6.07;0.70;;;;;;;10.44;82.77;100691.16;5018825;28;20026;-75
2022/05/25 05:43:03;;;;;;;4.00;0.60;;;;;;;10.47;83.09;100687.81;5019574;28;20112;-75
2022/05/25 05:45:30;;;;;;;5.05;0.80;;;;;;;10.52;82.33;100701.63;5018851;28;20033;-75
2022/05/25 05:47:59;;;;;;;3.08;0.60;;;;;;;10.58;83.59;100696.88;5019205;28;20048;-75
2022/05/25 05:50:24;;;;;;;1.50;0.52;;;;;;;10.63;83.53;100707.94;5014179;28;20173;-75
2022/05/25 05:52:50;;;;;;;3.13;1.02;;;;;;;10.72;83.90;100714.53;5024377;28;20030;-76
2022/05/25 05:55:15;;;;;;;2.97;0.70;;;;;;;10.83;80.50;100720.84;5033895;28;20021;-75
2022/05/25 05:57:41;;;;;;;3.30;0.80;;;;;;;10.96;79.73;100724.91;5018976;28;20045;-76
2022/05/25 06:00:07;;;;;;;3.58;0.73;;;;;;;11.10;79.44;100737.00;5034850;28;20025;-75
2022/05/25 06:02:33;;;;;;;1.95;0.50;;;;;;;11.30;78.96;100730.41;5035171;28;20374;-75
2022/05/25 06:04:58;;;;;;;2.78;0.70;;;;;;;11.47;78.26;100734.69;5018811;28;20080;-76
2022/05/25 06:07:24;;;;;;;1.60;0.70;;;;;;;11.68;78.10;100729.75;5036398;28;20029;-76
2022/05/25 06:09:49;;;;;;;1.38;0.60;;;;;;;11.89;77.66;100733.13;5035343;28;20045;-76
2022/05/25 06:12:15;;;;;;;2.28;0.70;;;;;;;12.10;77.16;100733.72;5035056;28;20056;-76
2022/05/25 06:14:41;;;;;;;2.47;0.73;;;;;;;12.32;76.56;100728.38;5031953;28;20417;-76
2022/05/25 06:19:51;;;;;;;2.08;0.80;;;;;;;12.85;75.55;100732.88;5035190;28;20566;-76
2022/05/25 06:22:18;;;;;;;2.95;0.98;;;;;;;13.09;74.81;100739.16;5036264;28;20030;-76
2022/05/25 06:24:49;;;;;;;6.95;0.98;;;;;;;13.31;74.81;100740.47;5054921;28;20021;-76
2022/05/25 06:27:15;;;;;;;1.40;0.77;;;;;;;13.54;73.33;100733.91;5018568;28;20041;-76
2022/05/25 06:29:46;;;;;;;1.52;0.60;;;;;;;13.76;72.92;100729.53;5031764;28;20025;-75
2022/05/25 06:32:13;;;;;;;2.13;0.77;;;;;;;13.99;72.25;100733.28;5034836;28;20029;-76
2022/05/25 06:34:39;;;;;;;3.42;0.75;;;;;;;14.23;72.24;100735.81;5034952;28;20200;-76
2022/05/25 06:37:04;;;;;;;3.60;0.95;;;;;;;14.42;71.49;100730.09;5017519;28;20117;-76
2022/05/25 06:39:36;;;;;;;2.30;0.80;;;;;;;14.64;71.41;100732.13;4998958;28;20037;-74
2022/05/25 06:42:02;;;;;;;2.15;1.00;;;;;;;14.88;71.02;100721.47;5032917;28;20035;-73
2022/05/25 06:44:27;;;;;;;4.53;0.93;;;;;;;15.10;70.91;100716.97;5035831;28;20034;-75
2022/05/25 06:46:52;;;;;;;4.13;0.80;;;;;;;15.33;70.20;100727.00;5032482;28;20048;-74
2022/05/25 06:49:18;;;;;;;2.38;0.80;;;;;;;15.54;69.51;100748.84;5033582;28;20034;-74
2022/05/25 06:51:44;;;;;;;4.32;0.80;;;;;;;15.73;69.50;100737.44;5034109;28;20064;-74
2022/05/25 06:54:12;;;;;;;4.18;0.80;;;;;;;15.95;68.46;100753.31;5034885;28;20431;-74
2022/05/25 06:56:37;;;;;;;2.55;0.65;;;;;;;16.15;67.83;100752.72;5018522;28;20036;-74
2022/05/25 06:59:03;;;;;;;6.00;0.90;;;;;;;16.39;68.08;100754.28;5018082;28;20025;-73
2022/05/25 07:01:28;;;;;;;4.88;0.75;;;;;;;16.59;67.70;100766.81;5021101;28;20033;-73
2022/05/25 07:03:54;;;;;;;1.83;0.80;;;;;;;16.81;67.38;100775.13;5005104;28;20037;-74
2022/05/25 07:06:20;;;;;;;3.42;1.00;;;;;;;17.00;67.15;100783.19;5026673;28;20080;-74
2022/05/25 07:08:46;;;;;;;3.58;0.80;;;;;;;17.23;66.29;100774.59;5025044;28;20052;-74
2022/05/25 07:11:12;;;;;;;3.53;0.75;;;;;;;17.41;66.57;100785.47;5017883;28;20041;-75
2022/05/25 07:13:38;;;;;;;6.30;1.50;;;;;;;17.58;66.10;100786.59;5000013;28;20137;-75
2022/05/25 07:16:06;;;;;;;4.88;0.73;;;;;;;17.68;66.32;100782.56;5004206;28;20076;-74
2022/05/25 07:18:32;;;;;;;2.95;0.80;;;;;;;17.73;65.98;100785.19;5018155;28;20509;-75
2022/05/25 07:21:04;;;;;;;3.03;0.60;;;;;;;17.78;66.09;100790.63;5001900;28;20026;-74
2022/05/25 07:23:31;;;;;;;4.18;0.98;;;;;;;17.80;65.76;100788.31;4999640;28;20608;-74
2022/05/25 07:25:57;;;;;;;7.05;0.85;;;;;;;17.83;66.46;100793.31;5044532;28;20034;-74
2022/05/25 07:28:22;;;;;;;3.08;0.98;;;;;;;17.86;66.36;100790.63;5010514;28;20057;-74
2022/05/25 07:30:48;;;;;;;4.53;0.68;;;;;;;17.88;66.12;100803.50;5015374;28;20049;-74
2022/05/25 07:33:13;;;;;;;2.35;0.70;;;;;;;17.91;66.02;100805.66;5044982;28;20391;-75
2022/05/25 07:35:39;;;;;;;4.28;1.00;;;;;;;17.95;66.71;100804.66;5004761;28;20049;-74
2022/05/25 07:38:04;;;;;;;4.63;0.80;;;;;;;17.95;66.46;100807.47;5012457;28;20386;-75
2022/05/25 07:40:33;;;;;;;4.63;0.80;;;;;;;17.98;66.06;100806.78;5004900;28;20030;-74
2022/05/25 07:43:02;;;;;;;4.32;0.88;;;;;;;18.00;65.51;100810.09;5005332;28;20026;-74
2022/05/25 07:45:28;;;;;;;4.03;1.08;;;;;;;17.99;66.42;100805.59;5021303;28;20030;-74
2022/05/25 07:47:54;;;;;;;5.03;0.70;;;;;;;18.02;66.41;100809.72;5020983;28;20478;-72
2022/05/25 07:50:22;;;;;;;2.72;0.70;;;;;;;18.04;66.59;100811.03;5036719;28;20029;-72
2022/05/25 07:52:48;;;;;;;3.88;0.70;;;;;;;18.05;66.13;100807.09;5021169;28;20107;-72
2022/05/25 07:55:14;;;;;;;6.05;0.90;;;;;;;18.07;66.15;100810.38;5020958;28;20029;-72
2022/05/25 07:57:41;;;;;;;4.13;1.08;;;;;;;18.03;66.84;100820.66;5001491;28;20089;-74
2022/05/25 08:00:07;;;;;;;5.38;0.80;;;;;;;18.03;66.79;100820.66;5030980;28;20454;-74
2022/05/25 08:08:04;;;;;;;2.75;0.90;;;;;;;17.97;67.82;100822.00;5032039;28;20518;-74
2022/05/25 08:10:30;;;;;;;5.45;1.10;;;;;;;17.97;67.64;100835.19;5033941;28;20069;-74
2022/05/25 08:12:56;;;;;;;5.32;1.02;;;;;;;17.95;68.05;100835.56;5035638;28;20498;-72
2022/05/25 08:15:21;;;;;;;4.88;0.80;;;;;;;17.98;67.46;100851.75;4994775;28;20022;-72
2022/05/25 08:17:48;;;;;;;4.95;0.82;;;;;;;17.99;67.56;100847.75;5050021;28;20029;-72
2022/05/25 08:20:14;;;;;;;5.47;0.80;;;;;;;17.97;67.97;100841.66;5017322;28;20037;-72
2022/05/25 08:22:39;;;;;;;3.65;0.68;;;;;;;17.99;67.44;100852.56;5020442;28;20044;-72
2022/05/25 08:25:06;;;;;;;2.33;0.63;;;;;;;18.04;67.11;100853.19;5027362;28;20116;-72
2022/05/25 08:27:33;;;;;;;3.05;0.63;;;;;;;18.13;67.57;100846.72;5033594;28;20044;-72
2022/05/25 08:29:58;;;;;;;4.15;0.70;;;;;;;18.20;67.37;100842.22;5002949;28;20036;-72
2022/05/25 08:32:24;;;;;;;6.20;1.02;;;;;;;18.29;68.37;100850.63;5000662;28;20046;-72
2022/05/25 08:34:49;;;;;;;6.28;0.90;;;;;;;18.41;65.89;100833.84;5021229;28;20033;-72
2022/05/25 08:37:15;;;;;;;5.07;0.73;;;;;;;18.55;65.43;100836.41;5023741;28;20025;-72
2022/05/25 08:39:41;;;;;;;3.25;0.80;;;;;;;18.68;63.78;100835.34;5010827;28;20055;-72
2022/05/25 08:42:13;;;;;;;3.95;0.60;;;;;;;18.84;63.56;100829.97;5019991;28;20033;-72
2022/05/25 08:44:40;;;;;;;5.45;0.80;;;;;;;19.01;63.60;100831.00;5019953;28;20026;-72
2022/05/25 08:47:06;;;;;;;3.70;0.55;;;;;;;19.17;63.46;100832.03;5020381;28;20037;-72
2022/05/25 08:49:42;;;;;;;4.78;0.60;;;;;;;19.29;62.75;100832.09;5000256;28;20080;-72
2022/05/25 08:52:28;;;;;;;6.13;1.02;;;;;;;19.41;60.88;100834.94;5018820;28;20479;-72
2022/05/25 08:54:54;;;;;;;5.72;0.77;;;;;;;19.59;61.43;100834.78;5033935;28;20039;-72
2022/05/25 08:57:29;;;;;;;3.75;0.50;;;;;;;19.72;61.22;100836.47;5019986;28;20037;-72
2022/05/25 08:59:58;;;;;;;6.25;0.90;;;;;;;19.81;61.36;100840.03;5016315;28;20029;-72
2022/05/25 09:02:55;;;;;;;3.55;0.60;;;;;;;19.90;61.09;100839.13;5028224;28;20423;-72
2022/05/25 09:05:24;;;;;;;6.57;0.90;;;;;;;19.91;60.02;100840.75;5053929;28;20038;-72
2022/05/25 09:08:13;;;;;;;4.07;0.57;;;;;;;19.96;59.08;100846.16;5037304;28;20287;-72
2022/05/25 09:10:45;;;;;;;5.85;0.90;;;;;;;19.99;59.05;100840.66;5049174;28;20033;-72
2022/05/25 09:13:33;;;;;;;3.00;0.60;;;;;;;19.98;60.37;100849.47;5023520;28;20451;-72
2022/05/25 09:16:17;;;;;;;4.85;0.57;;;;;;;19.95;59.40;100853.00;5023565;28;20096;-72
2022/05/25 09:19:00;;;;;;;5.65;0.68;;;;;;;19.91;60.35;100849.22;5037279;28;20033;-72
2022/05/25 09:21:31;;;;;;;4.10;0.68;;;;;;;19.90;61.30;100850.38;5035786;28;20032;-72
2022/05/25 09:23:57;;;;;;;4.70;0.60;;;;;;;19.92;60.44;100848.03;5016559;28;20041;-72
2022/05/25 09:26:23;;;;;;;4.00;0.70;;;;;;;19.91;60.06;100846.38;5042608;28;20029;-72
2022/05/25 09:28:49;;;;;;;4.30;0.60;;;;;;;19.93;59.68;100856.16;5040430;28;20415;-72
2022/05/25 09:31:18;;;;;;;4.47;0.80;;;;;;;19.96;60.02;100852.63;5019077;28;20060;-72
2022/05/25 09:33:55;;;;;;;8.43;0.70;;;;;;;20.04;60.23;100851.69;5035629;28;20030;-72
2022/05/25 09:36:25;;;;;;;5.18;0.70;;;;;;;20.08;58.58;100851.81;5019637;28;20398;-72
2022/05/25 09:39:15;;;;;;;3.35;0.60;;;;;;;20.17;58.87;100855.38;5006580;28;20037;-73
2022/05/25 09:41:45;;;;;;;6.57;0.80;;;;;;;20.27;59.68;100854.88;5034843;28;20085;-73
2022/05/25 09:44:12;;;;;;;3.53;0.50;;;;;;;20.36;58.72;100863.22;5022471;28;20390;-73
2022/05/25 09:46:40;;;;;;;3.30;0.57;;;;;;;20.46;59.59;100862.78;5035387;28;20092;-72
2022/05/25 09:49:07;;;;;;;4.55;0.60;;;;;;;20.52;58.79;100867.00;5035237;28;20113;-73
2022/05/25 09:51:44;;;;;;;5.85;0.80;;;;;;;20.64;59.21;100865.38;5036234;28;20524;-72
2022/05/25 09:54:27;;;;;;;2.42;0.50;;;;;;;20.74;58.47;100871.38;5035349;28;20033;-72
2022/05/25 09:57:04;;;;;;;;;;;;;;;20.82;56.13;100880.91;5036729;28;20033;-72
2022/05/25 09:59:34;;;;;;;4.43;0.70;;;;;;;20.90;56.41;100865.84;5034937;28;19958;-72
2022/05/25 10:02:00;;;;;;;2.05;0.43;;;;;;;20.96;55.38;100872.06;5035472;28;20108;-72
2022/05/25 10:04:51;;;;;;;5.80;1.02;;;;;;;21.07;55.46;100863.91;5031490;28;20036;-72
2022/05/25 10:07:48;;;;;;;3.83;0.60;;;;;;;21.17;56.05;100869.91;5010684;28;20505;-72
2022/05/25 10:10:13;;;;;;;3.50;0.50;;;;;;;21.30;55.63;100862.19;5027682;28;20437;-72
2022/05/25 10:12:39;;;;;;;8.93;0.80;;;;;;;21.38;55.78;100857.59;5031149;28;20049;-67
2022/05/25 10:15:09;;;;;;;4.88;0.52;;;;;;;21.49;54.75;100860.75;5020970;28;20061;-70
2022/05/25 10:17:48;;;;;;;6.30;0.77;;;;;;;21.66;55.03;100851.13;5022651;28;20030;-70
2022/05/25 10:20:29;;;;;;;5.60;0.55;;;;;;;21.81;54.32;100864.44;5024823;28;20021;-71
2022/05/25 10:23:01;;;;;;;8.15;1.00;;;;;;;22.00;53.14;100858.91;5037316;28;20042;-70
2022/05/25 10:25:28;;;;;;;7.57;1.08;;;;;;;22.18;53.15;100864.28;4996567;28;20043;-69
2022/05/25 10:27:54;;;;;;;3.58;0.60;;;;;;;22.34;50.56;100861.44;5034929;28;20041;-70
2022/05/25 10:39:16;;;;;;;4.13;0.70;;;;;;;22.86;50.20;100875.22;5027484;28;20033;-70
2022/05/25 10:41:43;;;;;;;6.28;0.80;;;;;;;22.95;50.79;100873.03;5023132;28;20116;-70
2022/05/25 10:44:21;;;;;;;4.90;0.85;;;;;;;23.00;50.71;100877.59;5016527;28;20033;-70
2022/05/25 10:46:57;;;;;;;6.72;0.90;;;;;;;23.01;50.35;100875.59;5018455;28;20108;-70
2022/05/25 10:49:40;;;;;;;5.68;0.73;;;;;;;23.08;49.39;100887.09;5018264;28;20037;-70
2022/05/25 10:52:46;;;;;;;6.88;0.98;;;;;;;23.07;49.67;100880.63;4998419;28;20025;-70
2022/05/25 10:55:11;;;;;;;3.50;0.63;;;;;;;23.18;49.82;100895.84;5003148;28;20130;-70
2022/05/25 10:58:16;;;;;;;5.07;0.60;;;;;;;23.16;50.61;100886.06;5015172;28;20046;-72
2022/05/25 11:00:48;;;;;;;6.35;0.60;;;;;;;23.20;50.05;100884.13;5012891;28;20041;-72
2022/05/25 11:03:38;;;;;;;5.93;0.77;;;;;;;23.24;49.57;100890.69;5035114;28;20072;-70
2022/05/25 11:06:21;;;;;;;3.80;0.77;;;;;;;23.18;49.18;100889.34;5038039;28;20405;-71
2022/05/25 11:09:13;;;;;;;5.43;0.80;;;;;;;23.13;50.16;100892.47;5039634;28;20041;-71
2022/05/25 11:11:45;;;;;;;6.72;1.13;;;;;;;23.02;48.63;100895.06;5043094;28;20030;-71
2022/05/25 11:14:32;;;;;;;4.18;0.98;;;;;;;23.01;49.40;100893.41;5038038;28;20052;-71
2022/05/25 11:17:01;;;;;;;5.95;1.10;;;;;;;23.00;49.22;100891.78;5028002;28;20421;-71
2022/05/25 11:19:43;;;;;;;7.00;1.13;;;;;;;23.02;50.83;100888.56;5038026;28;20112;-71
2022/05/25 11:22:18;;;;;;;5.80;0.80;;;;;;;23.06;51.46;100900.78;5037910;28;20040;-69
2022/05/25 11:25:06;;;;;;;5.70;0.57;;;;;;;23.07;50.54;100894.78;5011235;28;20029;-78
2022/05/25 11:27:45;;;;;;;3.67;0.70;;;;;;;23.16;50.27;100895.38;5037951;28;20021;-78
2022/05/25 11:30:18;;;;;;;4.13;0.70;;;;;;;23.28;50.54;100883.06;5025764;28;20038;-79
2022/05/25 11:32:47;;;;;;;;;;;;;;;23.45;49.34;100883.84;5003360;28;20025;-78
2022/05/25 11:35:21;;;;;;;7.32;0.50;;;;;;;23.55;49.48;100884.06;5038936;28;19909;-78
2022/05/25 11:38:21;;;;;;;3.97;0.57;;;;;;;23.71;49.26;100875.50;5005141;28;20029;-78
2022/05/25 11:41:28;;;;;;;5.18;1.02;;;;;;;23.84;47.54;100879.78;5038254;28;20033;-78
2022/05/25 11:44:05;;;;;;;4.32;0.80;;;;;;;23.95;48.91;100863.00;5037271;28;20036;-78
2022/05/25 11:46:51;;;;;;;4.82;0.73;;;;;;;24.08;47.54;100877.81;5037470;28;20036;-79
2022/05/25 11:49:49;;;;;;;5.63;0.70;;;;;;;24.18;47.35;100877.22;5030228;28;20045;-78
2022/05/25 11:52:59;;;;;;;6.18;0.75;;;;;;;24.26;46.61;100870.44;5006929;28;20045;-78
2022/05/25 11:55:31;;;;;;;5.05;0.77;;;;;;;24.29;46.35;100872.53;4998800;28;20124;-79
2022/05/25 11:58:18;;;;;;;3.88;0.60;;;;;;;24.37;47.40;100875.47;5003395;28;20508;-78
2022/05/25 12:01:12;;;;;;;6.28;0.63;;;;;;;24.43;47.08;100874.84;5001628;28;20092;-78
2022/05/25 12:04:02;;;;;;;2.88;0.65;;;;;;;24.53;46.77;100865.66;5027812;28;20045;-78
2022/05/25 12:06:37;;;;;;;2.50;0.60;;;;;;;24.63;46.73;100874.75;5037815;28;20040;-78
2022/05/25 12:09:29;;;;;;;4.40;0.70;;;;;;;24.69;47.34;100867.53;5029609;28;20025;-77